Shizka — DSQL2 — position and weather

sailwx.info

Track history (hours):
 
Tides and Currents Weather Stations Pressure Air Temp Water Temp Dewpoint Dewpoint Depression Visibility Wind Speed Wind Dir Waves Ship Positions

Shizka

Last reported at 2017-Oct-09 17:03 UTC. Time now 2017-Oct-19 14:29 UTC.
Position N 34°46' E 139°08'.
Warning: this ship's position is 9 days out of date.

Length 74 m; draft 5 m.

Type: Cargo ship. MMSI: 441613000.

Date/timePositionNaut miles runAvg speedWind from/ knotsBaromVisibWave heightAir tempDewpointWater temp
2017-Oct-09 17:03N 34°46' E 139°08'3 8.2
2017-Oct-09 16:43N 34°48' E 139°10'19 7.9
2017-Oct-09 14:18N 35°00' E 139°29'3 8.2
2017-Oct-09 13:57N 35°02' E 139°32'4 8.5
2017-Oct-09 13:30N 35°04' E 139°35'4 8.1
2017-Oct-09 13:00N 35°06' E 139°39'4 8.1
2017-Oct-09 12:30N 35°09' E 139°43'4 8.9
2017-Oct-09 12:00N 35°13' E 139°46'5 9.4
2017-Oct-09 11:28N 35°18' E 139°44'5 9.2
2017-Oct-09 10:57N 35°22' E 139°42'4 8.2
2017-Oct-09 10:29N 35°25' E 139°45'8 0.2
2017-Oct-07 22:43N 35°22' E 139°54'2 9.0
2017-Oct-07 22:30N 35°22' E 139°52'1 0.5
2017-Oct-07 20:15N 35°23' E 139°51'0 0.1
2017-Oct-07 19:48N 35°23' E 139°51'0 0.0
2017-Oct-07 19:30N 35°23' E 139°51'0 0.0
2017-Oct-07 17:00N 35°23' E 139°51'0 0.0
2017-Oct-07 16:30N 35°23' E 139°51'0 0.0
2017-Oct-07 14:24N 35°23' E 139°51'0 0.1
2017-Oct-07 13:54N 35°23' E 139°51'0 0.0
2017-Oct-07 13:18N 35°23' E 139°51'0 0.0
2017-Oct-07 13:00N 35°23' E 139°51'0 0.0
2017-Oct-07 12:30N 35°23' E 139°51'0 0.0
2017-Oct-07 11:51N 35°23' E 139°51'0 0.1
2017-Oct-07 11:03N 35°23' E 139°51'0 0.0
2017-Oct-07 10:51N 35°23' E 139°51'0 0.0
2017-Oct-07 10:27N 35°23' E 139°51'0 0.0
2017-Oct-07 09:24N 35°23' E 139°51'0 0.0
2017-Oct-07 08:36N 35°23' E 139°51'0 0.0
2017-Oct-07 08:30N 35°23' E 139°51'0 0.0
2017-Oct-07 08:00N 35°23' E 139°51'0 0.0
2017-Oct-07 06:15N 35°23' E 139°51'0 0.1
2017-Oct-07 05:51N 35°23' E 139°51'0 0.0
2017-Oct-07 03:45N 35°23' E 139°51'0 0.0
2017-Oct-07 03:18N 35°23' E 139°51'0 0.0
2017-Oct-07 02:57N 35°23' E 139°51'0 0.0
2017-Oct-07 02:18N 35°23' E 139°51'0 0.1
2017-Oct-07 01:51N 35°23' E 139°51'0 0.0
2017-Oct-07 01:21N 35°23' E 139°51'0 0.0
2017-Oct-06 23:45N 35°23' E 139°51'0 0.0
2017-Oct-06 23:27N 35°23' E 139°51'0 0.0
2017-Oct-06 20:48N 35°23' E 139°51'0 0.1
2017-Oct-06 20:24N 35°23' E 139°51'0 0.0
2017-Oct-06 20:00N 35°23' E 139°51'0 0.0
2017-Oct-06 19:30N 35°23' E 139°51'0 0.1
2017-Oct-06 18:51N 35°23' E 139°51'0 0.1
2017-Oct-06 18:09N 35°23' E 139°51'0 0.0
2017-Oct-06 17:45N 35°23' E 139°51'0 0.0
2017-Oct-06 17:21N 35°23' E 139°51'0 0.0
2017-Oct-06 16:33N 35°23' E 139°51'0 0.0
2017-Oct-06 16:21N 35°23' E 139°51'0 0.0
2017-Oct-06 15:39N 35°23' E 139°51'0 0.0
2017-Oct-06 15:15N 35°23' E 139°51'0 0.0
2017-Oct-06 14:57N 35°23' E 139°51'0 0.0
2017-Oct-06 14:27N 35°23' E 139°51'0 0.0
2017-Oct-06 13:45N 35°23' E 139°51'0 0.0
2017-Oct-06 13:27N 35°23' E 139°51'0 0.0
2017-Oct-06 12:57N 35°23' E 139°51'0 0.0
2017-Oct-06 12:15N 35°23' E 139°51'0 0.0
2017-Oct-06 11:27N 35°23' E 139°51'0 0.0
2017-Oct-06 09:15N 35°23' E 139°51'0 0.0
2017-Oct-06 08:09N 35°23' E 139°51'0 0.0
2017-Oct-06 07:39N 35°23' E 139°51'0 0.0
2017-Oct-06 07:27N 35°23' E 139°51'0 0.0
2017-Oct-06 06:54N 35°23' E 139°51'0 0.1
2017-Oct-06 06:18N 35°23' E 139°51'0 0.1
2017-Oct-06 05:57N 35°23' E 139°51'0 0.0
2017-Oct-06 04:48N 35°23' E 139°51'0 0.0
2017-Oct-06 04:12N 35°23' E 139°51'0 0.0
2017-Oct-06 03:57N 35°23' E 139°51'0 0.0
2017-Oct-06 03:21N 35°23' E 139°51'0 0.0
2017-Oct-06 03:00N 35°23' E 139°51'0 0.0
2017-Oct-06 02:24N 35°23' E 139°51'0 0.0
2017-Oct-06 01:57N 35°23' E 139°51'0 0.0
2017-Oct-06 01:15N 35°23' E 139°51'0 0.0
2017-Oct-06 00:21N 35°23' E 139°51'0 0.0
2017-Oct-05 23:54N 35°23' E 139°51'0 0.0
2017-Oct-05 23:27N 35°23' E 139°51'0 0.0
2017-Oct-05 23:00N 35°23' E 139°51'0 0.0
2017-Oct-05 22:21N 35°23' E 139°51'0 0.0
2017-Oct-05 21:51N 35°23' E 139°51'0 0.0
2017-Oct-05 21:27N 35°23' E 139°51'0 0.1
2017-Oct-05 20:30N 35°23' E 139°51'0 0.1
2017-Oct-05 19:54N 35°23' E 139°51'0 0.1
2017-Oct-05 19:03N 35°23' E 139°51'0 0.0
2017-Oct-05 18:12N 35°23' E 139°51'0 0.0
2017-Oct-05 14:15N 35°23' E 139°51'0 0.0
2017-Oct-05 13:33N 35°23' E 139°51'0 0.0
2017-Oct-05 13:27N 35°23' E 139°51'0 0.0
2017-Oct-05 12:48N 35°23' E 139°51'0 0.0
2017-Oct-05 12:24N 35°23' E 139°51'0 0.0
2017-Oct-05 11:57N 35°23' E 139°51'0 0.0
2017-Oct-05 11:24N 35°23' E 139°51'0 0.0
2017-Oct-05 11:00N 35°23' E 139°51'0 0.0
2017-Oct-05 10:30N 35°23' E 139°51'0 0.0
2017-Oct-05 10:00N 35°23' E 139°51'0 0.0
2017-Oct-05 09:18N 35°23' E 139°51'0 0.0
2017-Oct-05 08:54N 35°23' E 139°51'0 0.0
2017-Oct-05 08:12N 35°23' E 139°51'0 0.0
2017-Oct-05 08:00N 35°23' E 139°51'0 0.0
2017-Oct-05 07:30N 35°23' E 139°51'3 5.7
2017-Oct-05 07:00N 35°21' E 139°49'1 1.6
2017-Oct-05 06:10N 35°20' E 139°50'0 0.0
2017-Oct-05 05:52N 35°20' E 139°50'0 0.0
2017-Oct-05 05:28N 35°20' E 139°50'0 0.0
2017-Oct-05 04:58N 35°20' E 139°50'0 0.0
2017-Oct-05 04:22N 35°20' E 139°50'0 0.0
2017-Oct-05 03:58N 35°20' E 139°50'0 0.0
2017-Oct-05 03:22N 35°20' E 139°50'0 0.0
2017-Oct-05 02:52N 35°20' E 139°50'0 0.0
2017-Oct-05 02:28N 35°20' E 139°50'0 0.0
2017-Oct-05 01:52N 35°20' E 139°50'0 0.0
2017-Oct-05 01:22N 35°20' E 139°50'0 0.0
2017-Oct-05 00:58N 35°20' E 139°50'0 0.0
2017-Oct-04 23:31N 35°20' E 139°50'0 0.0
2017-Oct-04 23:28N 35°20' E 139°50'0 0.0
2017-Oct-04 22:55N 35°20' E 139°50'0 0.0
2017-Oct-04 22:25N 35°20' E 139°50'0 0.0
2017-Oct-04 21:55N 35°20' E 139°50'0 0.3
2017-Oct-04 21:28N 35°20' E 139°50'3 6.7
2017-Oct-04 21:00N 35°23' E 139°49'1 1.3
2017-Oct-04 20:30N 35°24' E 139°49'0 0.0
2017-Oct-04 20:00N 35°24' E 139°49'0 0.0
2017-Oct-04 19:30N 35°24' E 139°49'0 0.0
2017-Oct-04 19:00N 35°24' E 139°49'0 0.0
2017-Oct-04 18:30N 35°24' E 139°49'0 0.0
2017-Oct-04 18:00N 35°24' E 139°49'0 0.0
2017-Oct-04 17:30N 35°24' E 139°49'0 0.1
2017-Oct-04 16:58N 35°24' E 139°49'3 5.5
2017-Oct-04 16:30N 35°23' E 139°47'5 9.1
2017-Oct-04 16:00N 35°19' E 139°44'5 9.4
2017-Oct-04 15:30N 35°15' E 139°47'5 9.0
2017-Oct-04 15:00N 35°10' E 139°46'4 8.2
2017-Oct-04 14:30N 35°06' E 139°44'4 8.4
2017-Oct-04 14:00N 35°04' E 139°41'4 8.9
2017-Oct-04 13:30N 35°01' E 139°36'  
Track history (hours):
 
Tides and Currents Weather Stations Pressure Air Temp Water Temp Dewpoint Dewpoint Depression Visibility Wind Speed Wind Dir Waves Ship Positions

Shizka

Last reported at 2017-Oct-09 17:03 UTC. Time now 2017-Oct-19 14:29 UTC.
Position N 34°46' E 139°08'.
Warning: this ship's position is 9 days out of date.

Length 74 m; draft 5 m.

Type: Cargo ship. MMSI: 441613000.

Date/timePositionNaut miles runAvg speedWind from/ knotsBaromVisibWave heightAir tempDewpointWater temp
2017-Oct-09 17:03N 34°46' E 139°08'3 8.2
2017-Oct-09 16:43N 34°48' E 139°10'19 7.9
2017-Oct-09 14:18N 35°00' E 139°29'3 8.2
2017-Oct-09 13:57N 35°02' E 139°32'4 8.5
2017-Oct-09 13:30N 35°04' E 139°35'4 8.1
2017-Oct-09 13:00N 35°06' E 139°39'4 8.1
2017-Oct-09 12:30N 35°09' E 139°43'4 8.9
2017-Oct-09 12:00N 35°13' E 139°46'5 9.4
2017-Oct-09 11:28N 35°18' E 139°44'5 9.2
2017-Oct-09 10:57N 35°22' E 139°42'4 8.2
2017-Oct-09 10:29N 35°25' E 139°45'8 0.2
2017-Oct-07 22:43N 35°22' E 139°54'2 9.0
2017-Oct-07 22:30N 35°22' E 139°52'1 0.5
2017-Oct-07 20:15N 35°23' E 139°51'0 0.1
2017-Oct-07 19:48N 35°23' E 139°51'0 0.0
2017-Oct-07 19:30N 35°23' E 139°51'0 0.0
2017-Oct-07 17:00N 35°23' E 139°51'0 0.0
2017-Oct-07 16:30N 35°23' E 139°51'0 0.0
2017-Oct-07 14:24N 35°23' E 139°51'0 0.1
2017-Oct-07 13:54N 35°23' E 139°51'0 0.0
2017-Oct-07 13:18N 35°23' E 139°51'0 0.0
2017-Oct-07 13:00N 35°23' E 139°51'0 0.0
2017-Oct-07 12:30N 35°23' E 139°51'0 0.0
2017-Oct-07 11:51N 35°23' E 139°51'0 0.1
2017-Oct-07 11:03N 35°23' E 139°51'0 0.0
2017-Oct-07 10:51N 35°23' E 139°51'0 0.0
2017-Oct-07 10:27N 35°23' E 139°51'0 0.0
2017-Oct-07 09:24N 35°23' E 139°51'0 0.0
2017-Oct-07 08:36N 35°23' E 139°51'0 0.0
2017-Oct-07 08:30N 35°23' E 139°51'0 0.0
2017-Oct-07 08:00N 35°23' E 139°51'0 0.0
2017-Oct-07 06:15N 35°23' E 139°51'0 0.1
2017-Oct-07 05:51N 35°23' E 139°51'0 0.0
2017-Oct-07 03:45N 35°23' E 139°51'0 0.0
2017-Oct-07 03:18N 35°23' E 139°51'0 0.0
2017-Oct-07 02:57N 35°23' E 139°51'0 0.0
2017-Oct-07 02:18N 35°23' E 139°51'0 0.1
2017-Oct-07 01:51N 35°23' E 139°51'0 0.0
2017-Oct-07 01:21N 35°23' E 139°51'0 0.0
2017-Oct-06 23:45N 35°23' E 139°51'0 0.0
2017-Oct-06 23:27N 35°23' E 139°51'0 0.0
2017-Oct-06 20:48N 35°23' E 139°51'0 0.1
2017-Oct-06 20:24N 35°23' E 139°51'0 0.0
2017-Oct-06 20:00N 35°23' E 139°51'0 0.0
2017-Oct-06 19:30N 35°23' E 139°51'0 0.1
2017-Oct-06 18:51N 35°23' E 139°51'0 0.1
2017-Oct-06 18:09N 35°23' E 139°51'0 0.0
2017-Oct-06 17:45N 35°23' E 139°51'0 0.0
2017-Oct-06 17:21N 35°23' E 139°51'0 0.0
2017-Oct-06 16:33N 35°23' E 139°51'0 0.0
2017-Oct-06 16:21N 35°23' E 139°51'0 0.0
2017-Oct-06 15:39N 35°23' E 139°51'0 0.0
2017-Oct-06 15:15N 35°23' E 139°51'0 0.0
2017-Oct-06 14:57N 35°23' E 139°51'0 0.0
2017-Oct-06 14:27N 35°23' E 139°51'0 0.0
2017-Oct-06 13:45N 35°23' E 139°51'0 0.0
2017-Oct-06 13:27N 35°23' E 139°51'0 0.0
2017-Oct-06 12:57N 35°23' E 139°51'0 0.0
2017-Oct-06 12:15N 35°23' E 139°51'0 0.0
2017-Oct-06 11:27N 35°23' E 139°51'0 0.0
2017-Oct-06 09:15N 35°23' E 139°51'0 0.0
2017-Oct-06 08:09N 35°23' E 139°51'0 0.0
2017-Oct-06 07:39N 35°23' E 139°51'0 0.0
2017-Oct-06 07:27N 35°23' E 139°51'0 0.0
2017-Oct-06 06:54N 35°23' E 139°51'0 0.1
2017-Oct-06 06:18N 35°23' E 139°51'0 0.1
2017-Oct-06 05:57N 35°23' E 139°51'0 0.0
2017-Oct-06 04:48N 35°23' E 139°51'0 0.0
2017-Oct-06 04:12N 35°23' E 139°51'0 0.0
2017-Oct-06 03:57N 35°23' E 139°51'0 0.0
2017-Oct-06 03:21N 35°23' E 139°51'0 0.0
2017-Oct-06 03:00N 35°23' E 139°51'0 0.0
2017-Oct-06 02:24N 35°23' E 139°51'0 0.0
2017-Oct-06 01:57N 35°23' E 139°51'0 0.0
2017-Oct-06 01:15N 35°23' E 139°51'0 0.0
2017-Oct-06 00:21N 35°23' E 139°51'0 0.0
2017-Oct-05 23:54N 35°23' E 139°51'0 0.0
2017-Oct-05 23:27N 35°23' E 139°51'0 0.0
2017-Oct-05 23:00N 35°23' E 139°51'0 0.0
2017-Oct-05 22:21N 35°23' E 139°51'0 0.0
2017-Oct-05 21:51N 35°23' E 139°51'0 0.0
2017-Oct-05 21:27N 35°23' E 139°51'0 0.1
2017-Oct-05 20:30N 35°23' E 139°51'0 0.1
2017-Oct-05 19:54N 35°23' E 139°51'0 0.1
2017-Oct-05 19:03N 35°23' E 139°51'0 0.0
2017-Oct-05 18:12N 35°23' E 139°51'0 0.0
2017-Oct-05 14:15N 35°23' E 139°51'0 0.0
2017-Oct-05 13:33N 35°23' E 139°51'0 0.0
2017-Oct-05 13:27N 35°23' E 139°51'0 0.0
2017-Oct-05 12:48N 35°23' E 139°51'0 0.0
2017-Oct-05 12:24N 35°23' E 139°51'0 0.0
2017-Oct-05 11:57N 35°23' E 139°51'0 0.0
2017-Oct-05 11:24N 35°23' E 139°51'0 0.0
2017-Oct-05 11:00N 35°23' E 139°51'0 0.0
2017-Oct-05 10:30N 35°23' E 139°51'0 0.0
2017-Oct-05 10:00N 35°23' E 139°51'0 0.0
2017-Oct-05 09:18N 35°23' E 139°51'0 0.0
2017-Oct-05 08:54N 35°23' E 139°51'0 0.0
2017-Oct-05 08:12N 35°23' E 139°51'0 0.0
2017-Oct-05 08:00N 35°23' E 139°51'0 0.0
2017-Oct-05 07:30N 35°23' E 139°51'3 5.7
2017-Oct-05 07:00N 35°21' E 139°49'1 1.6
2017-Oct-05 06:10N 35°20' E 139°50'0 0.0
2017-Oct-05 05:52N 35°20' E 139°50'0 0.0
2017-Oct-05 05:28N 35°20' E 139°50'0 0.0
2017-Oct-05 04:58N 35°20' E 139°50'0 0.0
2017-Oct-05 04:22N 35°20' E 139°50'0 0.0
2017-Oct-05 03:58N 35°20' E 139°50'0 0.0
2017-Oct-05 03:22N 35°20' E 139°50'0 0.0
2017-Oct-05 02:52N 35°20' E 139°50'0 0.0
2017-Oct-05 02:28N 35°20' E 139°50'0 0.0
2017-Oct-05 01:52N 35°20' E 139°50'0 0.0
2017-Oct-05 01:22N 35°20' E 139°50'0 0.0
2017-Oct-05 00:58N 35°20' E 139°50'0 0.0
2017-Oct-04 23:31N 35°20' E 139°50'0 0.0
2017-Oct-04 23:28N 35°20' E 139°50'0 0.0
2017-Oct-04 22:55N 35°20' E 139°50'0 0.0
2017-Oct-04 22:25N 35°20' E 139°50'0 0.0
2017-Oct-04 21:55N 35°20' E 139°50'0 0.3
2017-Oct-04 21:28N 35°20' E 139°50'3 6.7
2017-Oct-04 21:00N 35°23' E 139°49'1 1.3
2017-Oct-04 20:30N 35°24' E 139°49'0 0.0
2017-Oct-04 20:00N 35°24' E 139°49'0 0.0
2017-Oct-04 19:30N 35°24' E 139°49'0 0.0
2017-Oct-04 19:00N 35°24' E 139°49'0 0.0
2017-Oct-04 18:30N 35°24' E 139°49'0 0.0
2017-Oct-04 18:00N 35°24' E 139°49'0 0.0
2017-Oct-04 17:30N 35°24' E 139°49'0 0.1
2017-Oct-04 16:58N 35°24' E 139°49'3 5.5
2017-Oct-04 16:30N 35°23' E 139°47'5 9.1
2017-Oct-04 16:00N 35°19' E 139°44'5 9.4
2017-Oct-04 15:30N 35°15' E 139°47'5 9.0
2017-Oct-04 15:00N 35°10' E 139°46'4 8.2
2017-Oct-04 14:30N 35°06' E 139°44'4 8.4
2017-Oct-04 14:00N 35°04' E 139°41'4 8.9
2017-Oct-04 13:30N 35°01' E 139°36'  

Dump ship's entire track history